FR-0218 weather

Centre Hospitalier Heliport
Chamonix, Auvergne-Rhône-Alpes, France

Public forecast

Using degrees Celsius for public forecast. Weather courtesy of forecast.io.

Closest aviation weather report (METAR) to Centre Hospitalier Heliport

Closest report is Aosta Airport, 23.6 nm (43.8 km) ESE. Retrieved 2020/01/29 14:20 UTC (2 minutes ago):

LIMW 291420Z AUTO 32012G22KT 280V350 9999 BKN078 10/M03 Q1013

Closest aviation forecast (TAF) to Centre Hospitalier Heliport

Closest forecast is Annecy-Haute-Savoie-Mont Blanc Airport, 31.6 nm (58.6 km) W. Retrieved 2020/01/29 15:00 UTC (0 seconds ago):

TAF LFLP 291400Z 2915/3015 22005KT 9999 BKN025 OVC030 TEMPO 2915/2918 -RA PROB40 TEMPO 2915/2918 BKN014 BECMG 2919/2921 VRB02KT BECMG 2921/2923 CAVOK PROB40 TEMPO 3000/3009 4000 BR PROB30 TEMPO 3002/3009 0600 FG VV/// BECMG 3013/3015 5000 RA SCT035 OVC040